Time;durP1;ratioP1;P1;durP2;ratioP2;P2;SDS_P1;SDS_P2;PMS_P1;PMS_P2;Temp;Humidity;BMP_temperature;BMP_pressure;BME280_temperature;BME280_humidity;BME280_pressure;Samples;Min_cycle;Max_cycle;Signal;HPM_P1;HPM_P2
2022/06/18 00:02:20;;;;;;;6.93;2.80;;;26.00;68.70;;;;;;5096003;28;20020;-84
2022/06/18 00:04:46;;;;;;;4.65;2.55;;;25.90;68.70;;;;;;5112649;28;20065;-84
2022/06/18 00:07:22;;;;;;;6.78;2.70;;;25.90;69.10;;;;;;5081479;28;20032;-84
2022/06/18 00:10:11;;;;;;;7.45;2.72;;;25.80;69.20;;;;;;5112817;28;20388;-84
2022/06/18 00:16:00;;;;;;;8.63;2.63;;;25.70;69.50;;;;;;5084878;28;20037;-84
2022/06/18 00:18:26;;;;;;;5.82;2.42;;;25.60;69.90;;;;;;5044374;28;20028;-84
2022/06/18 00:20:52;;;;;;;5.30;2.85;;;25.60;70.00;;;;;;5040640;28;20511;-84
2022/06/18 00:23:19;;;;;;;5.85;2.35;;;25.50;70.10;;;;;;5058228;28;20119;-84
2022/06/18 00:25:47;;;;;;;3.85;2.50;;;25.50;70.40;;;;;;5112851;28;20110;-84
2022/06/18 00:28:25;;;;;;;3.70;2.30;;;25.40;70.40;;;;;;5100345;28;20031;-84
2022/06/18 00:30:52;;;;;;;5.72;2.70;;;25.40;70.80;;;;;;5113278;28;20502;-84
2022/06/18 00:33:19;;;;;;;4.68;2.50;;;25.40;71.00;;;;;;5081268;28;20020;-84
2022/06/18 00:35:46;;;;;;;6.22;2.90;;;25.30;71.70;;;;;;5116501;28;20043;-84
2022/06/18 00:38:26;;;;;;;5.40;2.35;;;25.30;71.20;;;;;;5112765;28;20068;-84
2022/06/18 00:40:53;;;;;;;7.30;2.60;;;25.30;71.70;;;;;;5110995;28;20156;-84
2022/06/18 00:43:42;;;;;;;7.18;2.60;;;25.20;71.80;;;;;;5117397;28;20046;-84
2022/06/18 00:46:22;;;;;;;5.70;2.80;;;25.20;72.10;;;;;;5117634;28;20103;-84
2022/06/18 00:49:11;;;;;;;4.05;2.50;;;25.20;72.40;;;;;;5116190;28;20027;-84
2022/06/18 00:51:45;;;;;;;4.45;2.63;;;25.10;72.80;;;;;;5101652;28;20484;-84
2022/06/18 00:54:30;;;;;;;6.15;3.10;;;25.10;72.70;;;;;;5115893;28;20019;-84
2022/06/18 00:57:20;;;;;;;5.65;2.90;;;25.10;73.00;;;;;;5103399;28;20016;-83
2022/06/18 00:59:53;;;;;;;6.05;2.60;;;25.00;73.20;;;;;;5115707;28;20032;-84
2022/06/18 01:02:30;;;;;;;5.03;2.63;;;25.00;73.40;;;;;;5116014;28;20411;-83
2022/06/18 01:04:55;;;;;;;4.50;2.60;;;25.00;73.70;;;;;;5101744;28;20464;-83
2022/06/18 01:07:36;;;;;;;7.28;2.65;;;24.90;73.90;;;;;;5098995;28;20023;-84
2022/06/18 01:10:12;;;;;;;7.75;2.72;;;24.90;73.90;;;;;;5115697;28;20023;-84
2022/06/18 01:12:39;;;;;;;6.35;2.60;;;24.90;74.20;;;;;;5115886;28;20407;-84
2022/06/18 01:15:08;;;;;;;9.43;2.92;;;24.90;74.30;;;;;;5098226;28;20020;-84
2022/06/18 01:17:36;;;;;;;7.80;2.80;;;24.80;74.50;;;;;;5115638;28;20076;-83
2022/06/18 01:20:06;;;;;;;8.18;3.03;;;24.80;74.70;;;;;;5115100;28;20020;-84
2022/06/18 01:23:13;;;;;;;4.23;2.77;;;24.80;75.00;;;;;;5115757;28;20485;-84
2022/06/18 01:25:39;;;;;;;4.90;3.05;;;24.80;75.40;;;;;;5099392;28;20027;-84
2022/06/18 01:28:04;;;;;;;5.55;2.72;;;24.70;75.60;;;;;;5098445;28;20039;-84
2022/06/18 01:30:36;;;;;;;4.57;3.00;;;24.70;75.70;;;;;;5098188;28;20024;-84
2022/06/18 01:33:06;;;;;;;5.32;3.30;;;24.60;75.70;;;;;;5115341;28;20035;-84
2022/06/18 01:35:44;;;;;;;5.07;2.85;;;24.60;75.90;;;;;;5100802;28;20034;-84
2022/06/18 01:38:12;;;;;;;7.90;3.20;;;24.50;75.10;;;;;;5115236;28;20031;-83
2022/06/18 01:41:49;;;;;;;6.85;2.80;;;24.50;75.20;;;;;;5098078;28;20026;-84
2022/06/18 01:43:48;;;;;;;5.70;2.65;;;24.40;75.80;;;;;;5115709;27;20031;-84
2022/06/18 01:46:13;;;;;;;5.63;3.17;;;24.40;76.20;;;;;;5115308;28;20500;-84
2022/06/18 01:48:45;;;;;;;8.75;2.60;;;24.30;76.10;;;;;;5098084;28;20020;-83
2022/06/18 01:51:23;;;;;;;5.68;2.72;;;24.30;76.30;;;;;;5114900;28;20019;-84
2022/06/18 01:53:58;;;;;;;5.40;2.50;;;24.30;76.50;;;;;;5115024;28;20032;-84
2022/06/18 01:56:30;;;;;;;6.72;3.08;;;24.20;76.60;;;;;;5114911;28;20129;-84
2022/06/18 01:59:12;;;;;;;7.00;3.25;;;24.20;76.70;;;;;;5116233;27;20026;-84
2022/06/18 02:01:42;;;;;;;4.85;2.92;;;24.20;77.20;;;;;;5102844;28;20024;-84
2022/06/18 02:04:21;;;;;;;5.88;3.60;;;24.20;77.50;;;;;;5098129;28;20033;-84
2022/06/18 02:06:49;;;;;;;6.07;3.10;;;24.20;77.10;;;;;;5114698;28;20024;-84
2022/06/18 02:09:34;;;;;;;5.45;3.33;;;24.10;77.20;;;;;;5115980;28;20039;-84
2022/06/18 02:12:03;;;;;;;6.30;3.33;;;24.10;77.50;;;;;;5114620;28;20498;-84
2022/06/18 02:14:31;;;;;;;5.18;3.08;;;24.10;77.90;;;;;;5097565;28;20122;-84
2022/06/18 02:17:00;;;;;;;6.28;3.50;;;24.10;78.50;;;;;;5107702;28;20299;-84
2022/06/18 02:19:27;;;;;;;8.98;4.00;;;24.10;78.00;;;;;;5108841;28;20038;-83
2022/06/18 02:21:56;;;;;;;6.18;3.20;;;24.00;78.20;;;;;;5115445;28;20031;-84
2022/06/18 02:24:22;;;;;;;7.85;3.55;;;24.00;78.60;;;;;;5114364;28;20026;-84
2022/06/18 02:26:48;;;;;;;6.30;3.28;;;24.00;78.80;;;;;;5114373;28;20107;-84
2022/06/18 02:29:19;;;;;;;6.10;3.40;;;24.00;79.20;;;;;;5097539;28;20032;-84
2022/06/18 02:31:45;;;;;;;7.20;3.55;;;23.90;79.00;;;;;;5116535;28;20051;-84
2022/06/18 02:34:16;;;;;;;4.63;3.25;;;23.90;78.70;;;;;;5095049;28;20028;-83
2022/06/18 02:36:42;;;;;;;5.60;3.47;;;23.90;78.50;;;;;;5115330;28;20023;-84
2022/06/18 02:39:08;;;;;;;5.28;3.47;;;23.80;78.40;;;;;;5106772;28;20027;-84
2022/06/18 02:41:35;;;;;;;6.75;3.67;;;23.70;78.60;;;;;;5120340;28;20083;-84
2022/06/18 02:44:01;;;;;;;8.65;3.92;;;23.70;78.80;;;;;;5120444;28;20020;-83
2022/06/18 02:46:27;;;;;;;10.88;3.88;;;23.70;78.90;;;;;;5132722;28;20031;-84
2022/06/18 02:48:53;;;;;;;6.22;3.95;;;23.60;79.20;;;;;;5116173;28;20020;-84
2022/06/18 02:51:19;;;;;;;6.22;4.22;;;23.60;79.60;;;;;;5093502;28;20119;-84
2022/06/18 02:53:48;;;;;;;9.02;4.43;;;23.60;79.80;;;;;;5074671;28;20470;-84
2022/06/18 02:56:15;;;;;;;5.43;4.10;;;23.60;80.10;;;;;;5092952;28;20021;-84
2022/06/18 02:58:44;;;;;;;6.47;3.85;;;23.50;80.20;;;;;;5107550;28;20076;-83
2022/06/18 03:01:24;;;;;;;9.05;4.05;;;23.50;80.80;;;;;;5111276;28;20084;-84
2022/06/18 03:03:56;;;;;;;12.23;4.65;;;23.60;81.30;;;;;;5111589;28;20106;-84
2022/06/18 03:06:24;;;;;;;11.57;4.57;;;23.50;81.40;;;;;;5113579;28;20023;-84
2022/06/18 03:08:50;;;;;;;7.05;3.97;;;23.50;81.60;;;;;;5113943;27;20020;-83
2022/06/18 03:14:02;;;;;;;10.07;4.80;;;23.50;82.30;;;;;;5102708;28;20039;-83
2022/06/18 03:16:28;;;;;;;8.15;4.20;;;23.50;82.60;;;;;;5093629;28;20031;-84
2022/06/18 03:18:56;;;;;;;8.90;4.60;;;23.50;82.70;;;;;;5114489;28;20015;-84
2022/06/18 03:21:28;;;;;;;11.05;4.68;;;23.50;82.80;;;;;;5113216;28;20074;-84
2022/06/18 03:23:54;;;;;;;8.35;4.63;;;23.50;82.80;;;;;;5114529;28;20047;-84
2022/06/18 03:26:19;;;;;;;9.90;4.60;;;23.50;82.90;;;;;;5113564;28;20513;-83
2022/06/18 03:28:46;;;;;;;6.40;4.72;;;23.40;83.10;;;;;;5081929;28;20055;-83
2022/06/18 03:31:12;;;;;;;8.65;4.68;;;23.50;84.20;;;;;;5109658;28;20547;-84
2022/06/18 03:33:38;;;;;;;5.35;4.32;;;23.40;83.80;;;;;;5107040;28;20040;-83
2022/06/18 03:36:05;;;;;;;9.02;5.05;;;23.40;84.20;;;;;;5112961;28;20492;-83
2022/06/18 03:38:34;;;;;;;10.38;4.70;;;23.40;84.00;;;;;;5092662;28;20439;-84
2022/06/18 03:41:00;;;;;;;8.93;4.88;;;23.30;83.80;;;;;;5079845;28;20068;-83
2022/06/18 03:43:27;;;;;;;7.38;4.88;;;23.30;83.70;;;;;;5092749;28;20488;-84
2022/06/18 03:45:58;;;;;;;7.60;4.47;;;23.20;83.60;;;;;;5109163;28;20426;-83
2022/06/18 03:48:49;;;;;;;7.95;5.35;;;23.20;83.90;;;;;;5114242;28;20459;-83
2022/06/18 03:51:15;;;;;;;6.95;4.65;;;23.20;84.30;;;;;;5113990;28;20103;-83
2022/06/18 03:53:41;;;;;;;8.10;4.97;;;23.10;84.30;;;;;;5114090;28;20023;-83
2022/06/18 03:56:10;;;;;;;10.05;4.97;;;23.10;84.50;;;;;;5112746;28;20012;-84
2022/06/18 03:58:36;;;;;;;8.25;4.60;;;23.10;84.30;;;;;;5114030;28;20030;-84
2022/06/18 04:01:02;;;;;;;7.65;4.95;;;23.00;84.20;;;;;;5112729;28;20023;-83
2022/06/18 04:03:27;;;;;;;7.70;4.90;;;23.00;84.60;;;;;;5092397;28;20123;-84
2022/06/18 04:05:53;;;;;;;7.82;5.30;;;22.90;85.10;;;;;;5068261;28;20028;-84
2022/06/18 04:08:22;;;;;;;9.35;5.32;;;22.90;85.30;;;;;;5092406;28;20032;-83
2022/06/18 04:10:48;;;;;;;12.13;5.40;;;22.90;85.60;;;;;;5095743;28;20075;-83
2022/06/18 04:13:32;;;;;;;8.48;4.75;;;22.90;85.60;;;;;;5111632;28;20107;-83
2022/06/18 04:15:58;;;;;;;7.38;5.30;;;22.90;85.70;;;;;;5091780;28;20020;-84
2022/06/18 04:18:23;;;;;;;8.27;5.43;;;22.90;86.10;;;;;;5090056;28;20168;-84
2022/06/18 04:20:54;;;;;;;9.27;4.88;;;22.90;86.60;;;;;;5084427;28;20072;-84
2022/06/18 04:23:19;;;;;;;10.23;5.10;;;22.90;86.70;;;;;;5109532;28;20429;-84
2022/06/18 04:25:45;;;;;;;9.88;5.65;;;22.90;86.70;;;;;;5076868;28;20142;-84
2022/06/18 04:28:13;;;;;;;9.68;5.70;;;22.90;87.00;;;;;;5079930;28;20032;-84
2022/06/18 04:30:39;;;;;;;11.40;5.65;;;22.90;87.30;;;;;;5106348;28;20024;-84
2022/06/18 04:33:05;;;;;;;9.50;5.95;;;22.90;87.70;;;;;;5078688;28;20059;-84
2022/06/18 04:35:31;;;;;;;9.27;4.72;;;22.90;88.30;;;;;;5087547;22;20422;-86
2022/06/18 04:37:57;;;;;;;9.95;5.13;;;22.90;88.90;;;;;;4956373;28;20019;-86
2022/06/18 04:40:31;;;;;;;8.88;6.00;;;22.90;89.30;;;;;;4979313;28;20106;-86
2022/06/18 04:42:58;;;;;;;10.70;5.50;;;22.90;89.50;;;;;;4970111;28;20023;-86
2022/06/18 04:45:24;;;;;;;13.25;6.03;;;22.90;89.70;;;;;;4986264;28;20031;-86
2022/06/18 04:47:49;;;;;;;7.25;5.35;;;22.90;89.90;;;;;;4983873;28;20054;-86
2022/06/18 04:50:18;;;;;;;9.95;6.30;;;23.00;90.10;;;;;;4969868;28;20035;-86
2022/06/18 04:52:43;;;;;;;8.25;5.97;;;23.00;90.20;;;;;;4983737;28;20098;-86
2022/06/18 04:55:09;;;;;;;10.32;5.90;;;23.00;90.20;;;;;;4975373;28;20117;-83
2022/06/18 04:57:35;;;;;;;9.80;6.28;;;23.00;90.30;;;;;;4972836;28;20072;-83
2022/06/18 05:00:03;;;;;;;11.73;6.82;;;23.00;90.30;;;;;;4969634;28;20027;-85
2022/06/18 05:02:31;;;;;;;21.50;6.35;;;23.00;90.30;;;;;;4977991;28;20481;-86
2022/06/18 05:04:57;;;;;;;9.93;5.95;;;23.00;90.20;;;;;;4987250;28;20061;-86
2022/06/18 05:07:23;;;;;;;10.88;6.53;;;23.00;90.30;;;;;;4969550;28;20058;-86
2022/06/18 05:09:48;;;;;;;10.90;6.63;;;23.00;90.30;;;;;;4953581;28;20058;-86
2022/06/18 05:12:17;;;;;;;10.32;6.43;;;23.00;90.40;;;;;;4969951;28;20062;-85
2022/06/18 05:14:43;;;;;;;9.73;6.30;;;23.00;90.60;;;;;;4965866;28;20041;-86
2022/06/18 05:17:23;;;;;;;13.85;7.63;;;23.00;90.70;;;;;;4989434;28;20026;-86
2022/06/18 05:19:49;;;;;;;9.90;7.05;;;23.00;90.90;;;;;;4980407;28;20532;-86
2022/06/18 05:22:15;;;;;;;11.43;7.32;;;23.00;91.00;;;;;;4974273;28;20102;-86
2022/06/18 05:24:41;;;;;;;11.43;6.97;;;23.00;91.00;;;;;;4972938;28;20052;-86
2022/06/18 05:27:21;;;;;;;12.45;7.50;;;23.00;90.90;;;;;;4972983;28;20019;-86
2022/06/18 05:29:47;;;;;;;11.10;7.70;;;23.00;90.90;;;;;;4973553;28;20023;-86
2022/06/18 05:32:13;;;;;;;10.25;7.80;;;22.90;91.00;;;;;;4977084;28;20278;-86
2022/06/18 05:34:39;;;;;;;10.25;7.55;;;22.90;91.00;;;;;;4957354;28;20031;-86
2022/06/18 05:37:12;;;;;;;12.95;7.47;;;23.00;91.10;;;;;;4965944;28;20085;-86
2022/06/18 05:39:38;;;;;;;14.02;7.53;;;22.90;91.20;;;;;;4974407;28;20042;-86
2022/06/18 05:42:04;;;;;;;14.07;7.68;;;22.90;91.40;;;;;;4959289;28;20031;-86
2022/06/18 05:44:30;;;;;;;14.25;7.90;;;23.00;91.50;;;;;;5034713;28;20093;-86
2022/06/18 05:46:55;;;;;;;11.52;7.55;;;22.90;91.50;;;;;;4969788;28;20031;-86
2022/06/18 05:49:21;;;;;;;14.65;8.70;;;23.00;91.60;;;;;;4973205;28;20134;-86
2022/06/18 05:51:47;;;;;;;13.13;8.48;;;23.00;91.80;;;;;;4973927;28;20027;-86
2022/06/18 05:54:12;;;;;;;11.70;8.07;;;23.00;91.80;;;;;;4958410;28;20062;-86
2022/06/18 05:56:38;;;;;;;13.07;8.57;;;23.00;91.80;;;;;;4986656;28;20049;-85
2022/06/18 05:59:03;;;;;;;13.18;8.18;;;23.00;91.90;;;;;;4991295;28;20030;-85
2022/06/18 06:01:32;;;;;;;13.75;8.57;;;23.00;91.90;;;;;;4972379;28;20027;-87
2022/06/18 06:03:58;;;;;;;10.98;8.15;;;23.00;92.00;;;;;;4955800;28;20081;-86
2022/06/18 06:06:23;;;;;;;13.90;7.57;;;23.00;92.10;;;;;;4956355;28;20023;-86
2022/06/18 06:08:49;;;;;;;13.63;7.85;;;23.00;92.00;;;;;;4983403;28;20025;-86
2022/06/18 06:11:30;;;;;;;12.57;7.35;;;23.10;92.00;;;;;;4976695;28;20035;-86
2022/06/18 06:13:59;;;;;;;12.23;7.18;;;23.10;92.10;;;;;;4958537;28;20379;-83
2022/06/18 06:16:26;;;;;;;16.20;8.00;;;23.10;92.10;;;;;;4973283;28;20031;-86
2022/06/18 06:18:52;;;;;;;10.25;7.03;;;23.10;92.10;;;;;;4993686;28;20043;-86
2022/06/18 06:21:18;;;;;;;10.88;7.90;;;23.10;92.20;;;;;;4980213;28;20083;-86
2022/06/18 06:23:44;;;;;;;12.70;7.82;;;23.20;92.20;;;;;;5009898;28;20022;-87
2022/06/18 06:26:23;;;;;;;13.63;7.22;;;23.20;92.20;;;;;;5016203;28;20026;-85
2022/06/18 06:28:49;;;;;;;13.45;8.02;;;23.30;92.30;;;;;;5015885;28;20018;-87
2022/06/18 06:31:15;;;;;;;14.18;7.60;;;23.30;92.30;;;;;;4979526;28;20019;-89
2022/06/18 06:33:41;;;;;;;12.55;8.10;;;23.40;92.30;;;;;;4982859;28;20030;-89
2022/06/18 06:36:09;;;;;;;12.43;7.55;;;23.40;92.30;;;;;;4999509;28;20053;-86
2022/06/18 06:38:37;;;;;;;10.73;8.00;;;23.40;92.30;;;;;;4958504;28;20104;-86
2022/06/18 06:41:25;;;;;;;17.02;7.82;;;23.50;92.40;;;;;;4957170;28;20031;-86
2022/06/18 06:43:52;;;;;;;12.40;7.38;;;23.50;92.40;;;;;;4959421;28;20098;-85
2022/06/18 06:46:18;;;;;;;14.02;7.50;;;23.50;92.40;;;;;;4972178;28;20458;-86
2022/06/18 06:48:44;;;;;;;14.20;8.10;;;23.60;92.30;;;;;;4975499;28;20378;-86
2022/06/18 06:51:23;;;;;;;14.88;9.02;;;23.60;92.30;;;;;;4981785;28;20110;-86
2022/06/18 06:53:49;;;;;;;14.90;8.23;;;23.60;92.30;;;;;;4971050;28;20479;-87
2022/06/18 06:59:04;;;;;;;13.18;7.00;;;23.70;92.30;;;;;;4972328;28;20041;-86
2022/06/18 07:01:30;;;;;;;14.38;7.97;;;23.80;92.30;;;;;;4983494;28;20058;-86
2022/06/18 07:03:56;;;;;;;15.02;8.40;;;23.80;92.30;;;;;;4988521;28;20027;-86
2022/06/18 07:06:22;;;;;;;11.13;6.93;;;23.80;92.40;;;;;;4970918;28;20045;-86
2022/06/18 07:08:47;;;;;;;15.02;8.02;;;23.90;92.50;;;;;;4972185;28;20035;-87
2022/06/18 07:11:14;;;;;;;12.93;8.70;;;23.90;92.50;;;;;;4972841;28;20072;-87
2022/06/18 07:13:39;;;;;;;11.93;7.95;;;24.00;92.40;;;;;;4972674;28;20113;-86
2022/06/18 07:16:06;;;;;;;18.50;8.60;;;24.10;92.40;;;;;;4954675;28;20055;-86
2022/06/18 07:18:37;;;;;;;14.20;7.95;;;24.10;92.40;;;;;;4963551;28;20392;-86
2022/06/18 07:21:11;;;;;;;12.10;7.65;;;24.20;92.40;;;;;;4971846;28;20443;-86
2022/06/18 07:23:37;;;;;;;15.68;8.57;;;24.30;92.40;;;;;;4971950;28;20027;-86
2022/06/18 07:26:03;;;;;;;13.40;7.82;;;24.30;92.30;;;;;;4971892;28;20027;-86
2022/06/18 07:28:29;;;;;;;11.40;7.18;;;24.40;92.30;;;;;;4955025;28;20062;-87
2022/06/18 07:30:55;;;;;;;16.20;8.70;;;24.40;92.40;;;;;;4985950;28;20023;-86
2022/06/18 07:33:24;;;;;;;12.55;6.78;;;24.50;92.50;;;;;;4974354;28;20053;-86
2022/06/18 07:35:50;;;;;;;11.93;7.47;;;24.60;92.50;;;;;;4971569;28;20066;-86
2022/06/18 07:38:16;;;;;;;11.77;6.68;;;24.70;92.40;;;;;;4976062;28;20018;-86
2022/06/18 07:40:54;;;;;;;11.85;6.88;;;24.70;92.20;;;;;;4958825;28;20114;-86
2022/06/18 07:43:30;;;;;;;14.55;7.85;;;24.80;92.10;;;;;;4974754;28;20064;-86
2022/06/18 07:45:58;;;;;;;15.43;8.13;;;24.90;92.00;;;;;;4982422;28;20027;-85
2022/06/18 07:48:24;;;;;;;10.80;7.32;;;24.90;91.90;;;;;;4990658;28;20050;-86
2022/06/18 07:50:50;;;;;;;10.48;7.05;;;25.00;91.90;;;;;;4991160;28;20526;-89
2022/06/18 07:53:23;;;;;;;12.02;7.90;;;25.10;91.80;;;;;;4993992;28;20030;-86
2022/06/18 07:55:50;;;;;;;12.00;7.20;;;25.20;91.80;;;;;;4984552;28;20035;-88
2022/06/18 07:58:16;;;;;;;16.10;8.02;;;25.30;91.70;;;;;;5019212;28;20034;-87
2022/06/18 08:00:42;;;;;;;9.85;6.97;;;25.30;91.60;;;;;;5034381;28;20028;-87
2022/06/18 08:03:10;;;;;;;13.23;6.88;;;25.40;91.70;;;;;;4980297;28;20027;-87
2022/06/18 08:05:36;;;;;;;11.65;6.47;;;25.50;91.70;;;;;;4966452;28;20114;-86
2022/06/18 08:08:05;;;;;;;13.63;6.47;;;25.50;91.60;;;;;;4951042;28;20034;-86
2022/06/18 08:10:34;;;;;;;17.50;7.57;;;25.60;91.80;;;;;;4965923;28;20023;-86
2022/06/18 08:13:00;;;;;;;12.05;5.93;;;25.70;91.70;;;;;;4968740;28;20097;-87
2022/06/18 08:15:28;;;;;;;12.23;6.40;;;25.80;91.60;;;;;;4968750;28;20039;-87
2022/06/18 08:17:54;;;;;;;12.63;6.90;;;25.80;91.40;;;;;;4969555;28;20054;-87
2022/06/18 08:20:19;;;;;;;11.75;7.25;;;25.80;91.10;;;;;;4952234;28;20502;-87
2022/06/18 08:22:48;;;;;;;13.38;6.25;;;25.90;91.00;;;;;;4969594;28;20023;-87
2022/06/18 08:25:15;;;;;;;16.48;6.85;;;26.00;91.00;;;;;;4967674;28;20027;-87
2022/06/18 08:27:42;;;;;;;15.52;6.47;;;26.00;91.00;;;;;;4969518;28;20034;-87
2022/06/18 08:30:09;;;;;;;10.00;6.28;;;26.10;91.20;;;;;;4971180;28;20054;-84
2022/06/18 08:32:34;;;;;;;13.18;7.28;;;26.20;91.30;;;;;;4971159;28;20023;-85
2022/06/18 08:35:01;;;;;;;15.32;7.18;;;26.30;91.30;;;;;;4952912;28;20100;-85
2022/06/18 08:37:29;;;;;;;13.90;7.15;;;26.30;91.00;;;;;;4968715;28;20054;-87
2022/06/18 08:39:56;;;;;;;15.35;6.05;;;26.40;90.70;;;;;;4969801;28;20115;-87
2022/06/18 08:42:31;;;;;;;11.15;5.82;;;26.40;90.50;;;;;;4969075;28;20026;-87
2022/06/18 08:45:12;;;;;;;16.55;6.45;;;26.50;90.30;;;;;;4978369;28;20075;-87
2022/06/18 08:47:58;;;;;;;13.90;6.10;;;26.50;90.30;;;;;;5001610;28;20110;-87
2022/06/18 08:51:02;;;;;;;15.52;5.78;;;26.60;90.20;;;;;;5056229;28;20059;-87
2022/06/18 08:53:58;;;;;;;12.77;5.82;;;26.70;90.10;;;;;;5055728;28;20508;-86
2022/06/18 08:56:45;;;;;;;10.52;5.72;;;26.80;90.20;;;;;;5004391;28;20044;-86
2022/06/18 08:59:29;;;;;;;11.00;5.63;;;26.80;90.30;;;;;;4996299;28;20023;-86
2022/06/18 09:02:14;;;;;;;14.85;6.80;;;26.90;90.30;;;;;;4982658;28;20117;-86
2022/06/18 09:04:53;;;;;;;10.73;5.60;;;27.00;90.40;;;;;;4972043;28;20095;-87
2022/06/18 09:07:26;;;;;;;10.57;4.65;;;27.00;90.20;;;;;;4999510;28;20460;-86
2022/06/18 09:10:28;;;;;;;16.02;5.88;;;27.10;89.70;;;;;;4983572;28;20023;-85
2022/06/18 09:13:09;;;;;;;13.85;5.78;;;27.10;88.30;;;;;;5031929;28;20238;-90
2022/06/18 09:15:45;;;;;;;14.00;4.95;;;27.10;87.10;;;;;;5037078;28;20082;-89
2022/06/18 09:18:22;;;;;;;12.07;5.85;;;27.20;87.40;;;;;;4993025;28;20026;-88
2022/06/18 09:20:55;;;;;;;9.48;5.40;;;27.20;87.40;;;;;;4984472;28;20117;-87
2022/06/18 09:23:59;;;;;;;13.32;4.60;;;27.30;87.40;;;;;;4978618;28;20505;-87
2022/06/18 09:26:34;;;;;;;12.82;5.60;;;27.30;87.80;;;;;;5018245;28;20029;-88
2022/06/18 09:29:31;;;;;;;10.60;4.72;;;27.40;87.60;;;;;;4975708;28;20733;-88
2022/06/18 09:32:02;;;;;;;12.07;5.13;;;27.50;87.60;;;;;;4993348;28;20042;-87
2022/06/18 09:34:32;;;;;;;11.95;5.32;;;27.50;87.10;;;;;;4972977;28;20481;-87
2022/06/18 09:37:14;;;;;;;12.07;5.93;;;27.50;86.50;;;;;;4972241;28;20055;-87
2022/06/18 09:39:44;;;;;;;10.90;5.55;;;27.50;86.30;;;;;;4973763;28;20023;-87
2022/06/18 09:42:24;;;;;;;10.82;5.10;;;27.60;85.90;;;;;;4973531;28;20018;-87
2022/06/18 09:44:54;;;;;;;12.05;5.50;;;27.60;85.40;;;;;;4973486;28;20129;-87
2022/06/18 09:47:39;;;;;;;10.60;5.40;;;27.70;85.40;;;;;;4975168;28;20082;-85
2022/06/18 09:50:28;;;;;;;8.98;5.68;;;27.70;85.40;;;;;;4988027;28;20035;-89
2022/06/18 09:53:12;;;;;;;11.68;6.18;;;27.80;86.00;;;;;;4970794;28;20031;-87
2022/06/18 09:55:49;;;;;;;15.20;6.70;;;27.90;86.10;;;;;;4974060;28;20450;-88
2022/06/18 09:58:33;;;;;;;14.30;5.65;;;27.90;85.50;;;;;;4973668;28;20466;-88
2022/06/18 10:01:00;;;;;;;14.13;5.88;;;27.90;85.50;;;;;;4972402;28;20011;-87
2022/06/18 10:09:15;;;;;;;10.32;5.03;;;28.10;85.80;;;;;;5012105;28;20046;-88
2022/06/18 10:11:44;;;;;;;11.50;4.75;;;28.20;84.80;;;;;;5017675;28;20148;-86
2022/06/18 10:14:19;;;;;;;12.50;5.03;;;28.20;84.20;;;;;;5073415;28;20052;-87
2022/06/18 10:17:12;;;;;;;11.80;5.03;;;28.20;84.00;;;;;;4986684;28;20044;-86
2022/06/18 10:19:59;;;;;;;11.77;4.88;;;28.30;84.20;;;;;;5054900;28;20042;-88
2022/06/18 10:22:47;;;;;;;15.55;4.72;;;28.30;83.20;;;;;;5004316;28;20459;-87
2022/06/18 10:25:36;;;;;;;11.57;4.53;;;28.40;82.50;;;;;;5056616;28;20029;-85
2022/06/18 10:28:20;;;;;;;13.32;4.97;;;28.40;82.10;;;;;;4985843;28;20092;-90
2022/06/18 10:31:05;;;;;;;12.07;4.65;;;28.40;81.60;;;;;;4987645;28;20135;-87
2022/06/18 10:33:36;;;;;;;10.15;4.15;;;28.50;80.90;;;;;;4971386;28;20084;-88
2022/06/18 10:36:08;;;;;;;9.88;3.88;;;28.60;80.60;;;;;;4972404;28;20047;-88
2022/06/18 10:38:42;;;;;;;7.43;3.55;;;28.60;79.60;;;;;;4972562;28;20053;-88
2022/06/18 10:41:26;;;;;;;28.27;4.70;;;28.60;78.90;;;;;;4967823;28;20106;-87
2022/06/18 10:44:04;;;;;;;10.50;4.20;;;28.70;77.60;;;;;;4982207;28;20026;-88
2022/06/18 10:46:30;;;;;;;13.88;4.32;;;28.70;77.00;;;;;;4975929;28;20026;-88
2022/06/18 10:49:00;;;;;;;13.63;3.95;;;28.70;77.20;;;;;;4972353;28;20065;-88
2022/06/18 10:51:28;;;;;;;;;;;28.80;77.20;;;;;;4973839;28;20098;-88
2022/06/18 10:53:58;;;;;;;9.63;4.63;;;28.80;77.30;;;;;;4969489;28;19927;-86
2022/06/18 10:56:30;;;;;;;10.13;4.57;;;28.90;76.70;;;;;;4968931;28;20041;-87
2022/06/18 10:59:00;;;;;;;10.52;3.88;;;28.90;76.10;;;;;;4965438;28;20050;-89
2022/06/18 11:01:34;;;;;;;9.70;3.97;;;29.00;76.30;;;;;;4981178;28;20042;-87
2022/06/18 11:04:20;;;;;;;11.73;3.85;;;29.00;76.40;;;;;;5005004;28;20014;-86
2022/06/18 11:06:47;;;;;;;12.90;4.32;;;29.10;75.70;;;;;;4970317;28;20506;-87
2022/06/18 11:09:22;;;;;;;10.38;4.13;;;29.10;74.60;;;;;;4968304;28;20106;-88
2022/06/18 11:11:54;;;;;;;13.75;4.10;;;29.20;74.30;;;;;;4959135;28;20031;-86
2022/06/18 11:14:20;;;;;;;9.13;3.97;;;29.20;74.10;;;;;;4966041;28;20034;-87
2022/06/18 11:16:47;;;;;;;9.45;4.00;;;29.30;74.00;;;;;;4989857;28;20061;-87
2022/06/18 11:19:24;;;;;;;11.98;3.30;;;29.30;73.60;;;;;;4956314;28;20022;-87
2022/06/18 11:21:50;;;;;;;12.68;4.32;;;29.40;74.00;;;;;;4971631;28;20026;-87
2022/06/18 11:24:31;;;;;;;8.55;4.05;;;29.50;74.00;;;;;;4984806;28;20023;-87
2022/06/18 11:26:57;;;;;;;;;;;29.60;74.40;;;;;;4971708;28;20090;-88
2022/06/18 11:29:33;;;;;;;9.40;3.53;;;29.60;74.40;;;;;;4975091;28;19953;-88
2022/06/18 11:32:08;;;;;;;9.93;3.83;;;29.70;74.00;;;;;;4979174;28;20023;-87
2022/06/18 11:34:40;;;;;;;13.05;4.47;;;29.70;73.90;;;;;;4972274;28;20146;-87
2022/06/18 11:37:26;;;;;;;12.38;4.45;;;29.80;74.00;;;;;;4970993;28;20047;-87
2022/06/18 11:39:58;;;;;;;10.73;4.45;;;29.80;74.30;;;;;;4980102;28;20029;-88
2022/06/18 11:42:40;;;;;;;12.27;4.32;;;29.90;74.70;;;;;;4978235;28;20031;-87
2022/06/18 11:45:06;;;;;;;7.35;3.92;;;30.00;74.40;;;;;;4972723;28;20024;-87
2022/06/18 11:48:21;;;;;;;11.23;4.50;;;30.10;73.50;;;;;;4967744;28;20027;-87
2022/06/18 11:51:00;;;;;;;13.35;4.55;;;30.10;73.20;;;;;;5003286;28;20046;-88
2022/06/18 11:53:35;;;;;;;9.68;4.47;;;30.10;72.40;;;;;;4980419;28;20064;-87
2022/06/18 11:56:06;;;;;;;11.00;4.38;;;30.20;72.60;;;;;;4989484;28;20097;-87
2022/06/18 11:58:54;;;;;;;10.63;4.70;;;30.20;73.00;;;;;;4980668;28;20023;-86
2022/06/18 12:01:32;;;;;;;12.05;4.80;;;30.30;73.00;;;;;;4981925;28;20537;-86
2022/06/18 12:04:04;;;;;;;9.38;3.75;;;30.40;72.20;;;;;;5026792;28;20039;-89
2022/06/18 12:06:43;;;;;;;8.95;4.00;;;30.40;71.70;;;;;;5033480;28;20020;-87
2022/06/18 12:09:11;;;;;;;9.90;4.32;;;30.50;72.00;;;;;;5000891;28;20542;-88
2022/06/18 12:12:06;;;;;;;12.48;4.28;;;30.50;71.90;;;;;;4993533;28;20065;-87
2022/06/18 12:14:44;;;;;;;14.73;4.55;;;30.60;72.20;;;;;;4978840;28;20499;-88
2022/06/18 12:17:20;;;;;;;10.43;4.30;;;30.60;71.50;;;;;;4975701;28;20034;-86
2022/06/18 12:19:59;;;;;;;11.30;4.13;;;30.70;71.60;;;;;;4972584;28;20089;-86
2022/06/18 12:22:41;;;;;;;12.25;4.15;;;30.80;71.20;;;;;;4988888;28;20118;-87
2022/06/18 12:25:25;;;;;;;11.25;4.72;;;30.80;71.30;;;;;;4957562;28;20051;-92
2022/06/18 12:28:10;;;;;;;14.57;4.65;;;30.90;70.60;;;;;;4986530;28;20385;-89
2022/06/18 12:30:45;;;;;;;11.63;4.28;;;31.00;70.20;;;;;;4984389;28;20404;-85
2022/06/18 12:33:18;;;;;;;7.65;3.63;;;31.00;70.00;;;;;;4978050;28;20558;-85
2022/06/18 12:35:52;;;;;;;12.93;4.18;;;31.00;69.70;;;;;;4971476;28;20494;-86
2022/06/18 12:38:50;;;;;;;10.20;4.30;;;31.10;68.50;;;;;;4974675;28;20023;-87
2022/06/18 12:41:38;;;;;;;10.57;4.00;;;31.10;68.10;;;;;;4961575;28;20027;-85
2022/06/18 12:44:12;;;;;;;11.30;5.00;;;31.10;68.50;;;;;;4962886;28;20030;-86
2022/06/18 12:46:46;;;;;;;12.80;4.57;;;31.20;68.20;;;;;;4982811;28;20501;-87
2022/06/18 12:49:50;;;;;;;9.75;3.95;;;31.20;67.80;;;;;;4978640;28;20033;-86
2022/06/18 12:52:34;;;;;;;12.88;4.80;;;31.30;68.90;;;;;;5051346;28;20021;-87
2022/06/18 12:55:17;;;;;;;11.98;4.13;;;31.40;70.40;;;;;;4966964;28;20039;-89
2022/06/18 12:58:01;;;;;;;11.48;4.63;;;31.40;71.40;;;;;;4978011;28;20034;-86
2022/06/18 13:00:49;;;;;;;12.45;4.15;;;31.50;71.60;;;;;;4978299;28;20093;-87
2022/06/18 13:03:37;;;;;;;11.27;4.40;;;31.60;71.80;;;;;;4961222;28;20022;-87
2022/06/18 13:06:26;;;;;;;12.32;4.65;;;31.70;71.30;;;;;;5038254;28;20055;-88
2022/06/18 13:09:01;;;;;;;10.27;4.40;;;31.70;70.50;;;;;;4970271;28;20039;-87
2022/06/18 13:11:39;;;;;;;10.60;4.63;;;31.70;70.10;;;;;;4971999;28;20030;-88
2022/06/18 13:14:18;;;;;;;11.75;4.80;;;31.80;70.30;;;;;;4967665;28;20022;-88
2022/06/18 13:16:55;;;;;;;11.55;4.53;;;31.90;70.70;;;;;;4968151;28;20027;-87
2022/06/18 13:19:37;;;;;;;14.02;4.88;;;31.90;69.90;;;;;;4967287;28;20539;-86
2022/06/18 13:22:04;;;;;;;11.40;4.78;;;32.00;69.30;;;;;;4998072;28;20024;-87
2022/06/18 13:30:44;;;;;;;15.35;4.63;;;32.10;68.40;;;;;;5052433;28;20023;-87